sensor_id;sensor_type;location;lat;lon;timestamp;P1;durP1;ratioP1;P2;durP2;ratioP2
1402;SDS011;696;48.546;9.896;2022-09-09T00:01:59;1.75;;;0.40;;
1402;SDS011;696;48.546;9.896;2022-09-09T00:04:35;0.60;;;0.40;;
1402;SDS011;696;48.546;9.896;2022-09-09T00:10:46;0.60;;;0.50;;
1402;SDS011;696;48.546;9.896;2022-09-09T00:21:01;0.55;;;0.55;;
1402;SDS011;696;48.546;9.896;2022-09-09T00:23:32;0.45;;;0.45;;
1402;SDS011;696;48.546;9.896;2022-09-09T00:28:48;4.28;;;0.40;;
1402;SDS011;696;48.546;9.896;2022-09-09T00:31:23;0.38;;;0.32;;
1402;SDS011;696;48.546;9.896;2022-09-09T00:33:51;0.60;;;0.60;;
1402;SDS011;696;48.546;9.896;2022-09-09T00:36:18;0.47;;;0.47;;
1402;SDS011;696;48.546;9.896;2022-09-09T00:38:51;0.40;;;0.40;;
1402;SDS011;696;48.546;9.896;2022-09-09T00:41:37;0.45;;;0.45;;
1402;SDS011;696;48.546;9.896;2022-09-09T00:54:47;0.82;;;0.70;;
1402;SDS011;696;48.546;9.896;2022-09-09T00:57:35;0.45;;;0.45;;
1402;SDS011;696;48.546;9.896;2022-09-09T01:00:18;1.40;;;0.80;;
1402;SDS011;696;48.546;9.896;2022-09-09T01:02:53;2.05;;;0.50;;
1402;SDS011;696;48.546;9.896;2022-09-09T01:08:24;1.77;;;0.60;;
1402;SDS011;696;48.546;9.896;2022-09-09T01:10:59;0.40;;;0.40;;
1402;SDS011;696;48.546;9.896;2022-09-09T01:13:26;1.55;;;0.63;;
1402;SDS011;696;48.546;9.896;2022-09-09T01:15:55;1.02;;;0.57;;
1402;SDS011;696;48.546;9.896;2022-09-09T01:18:23;2.88;;;0.65;;
1402;SDS011;696;48.546;9.896;2022-09-09T01:23:37;1.70;;;0.55;;
1402;SDS011;696;48.546;9.896;2022-09-09T01:28:44;0.50;;;0.40;;
1402;SDS011;696;48.546;9.896;2022-09-09T01:31:11;1.67;;;0.73;;
1402;SDS011;696;48.546;9.896;2022-09-09T01:33:40;4.50;;;0.80;;
1402;SDS011;696;48.546;9.896;2022-09-09T01:36:10;1.58;;;0.75;;
1402;SDS011;696;48.546;9.896;2022-09-09T01:38:39;1.23;;;0.50;;
1402;SDS011;696;48.546;9.896;2022-09-09T01:41:04;0.90;;;0.65;;
1402;SDS011;696;48.546;9.896;2022-09-09T01:43:30;0.52;;;0.52;;
1402;SDS011;696;48.546;9.896;2022-09-09T01:45:56;0.57;;;0.47;;
1402;SDS011;696;48.546;9.896;2022-09-09T01:48:24;0.50;;;0.38;;
1402;SDS011;696;48.546;9.896;2022-09-09T01:50:50;0.82;;;0.45;;
1402;SDS011;696;48.546;9.896;2022-09-09T01:53:17;0.50;;;0.50;;
1402;SDS011;696;48.546;9.896;2022-09-09T01:55:45;1.23;;;0.57;;
1402;SDS011;696;48.546;9.896;2022-09-09T01:58:37;0.70;;;0.70;;
1402;SDS011;696;48.546;9.896;2022-09-09T02:03:57;0.63;;;0.40;;
1402;SDS011;696;48.546;9.896;2022-09-09T02:09:05;2.20;;;0.77;;
1402;SDS011;696;48.546;9.896;2022-09-09T02:11:31;1.05;;;0.93;;
1402;SDS011;696;48.546;9.896;2022-09-09T02:14:01;0.40;;;0.40;;
1402;SDS011;696;48.546;9.896;2022-09-09T02:16:44;3.30;;;0.70;;
1402;SDS011;696;48.546;9.896;2022-09-09T02:19:14;0.57;;;0.50;;
1402;SDS011;696;48.546;9.896;2022-09-09T02:21:48;0.40;;;0.40;;
1402;SDS011;696;48.546;9.896;2022-09-09T02:24:14;2.15;;;0.77;;
1402;SDS011;696;48.546;9.896;2022-09-09T02:26:41;0.50;;;0.50;;
1402;SDS011;696;48.546;9.896;2022-09-09T02:29:19;0.55;;;0.55;;
1402;SDS011;696;48.546;9.896;2022-09-09T02:31:47;0.30;;;0.30;;
1402;SDS011;696;48.546;9.896;2022-09-09T02:34:14;0.52;;;0.50;;
1402;SDS011;696;48.546;9.896;2022-09-09T02:36:43;0.30;;;0.30;;
1402;SDS011;696;48.546;9.896;2022-09-09T02:39:10;0.52;;;0.50;;
1402;SDS011;696;48.546;9.896;2022-09-09T02:41:37;2.67;;;0.70;;
1402;SDS011;696;48.546;9.896;2022-09-09T02:44:14;1.20;;;0.90;;
1402;SDS011;696;48.546;9.896;2022-09-09T02:55:40;3.03;;;0.38;;
1402;SDS011;696;48.546;9.896;2022-09-09T02:58:09;0.50;;;0.50;;
1402;SDS011;696;48.546;9.896;2022-09-09T03:00:37;1.25;;;0.60;;
1402;SDS011;696;48.546;9.896;2022-09-09T03:03:04;2.28;;;0.68;;
1402;SDS011;696;48.546;9.896;2022-09-09T03:05:30;2.85;;;0.40;;
1402;SDS011;696;48.546;9.896;2022-09-09T03:07:56;1.98;;;0.73;;
1402;SDS011;696;48.546;9.896;2022-09-09T03:10:22;1.13;;;0.98;;
1402;SDS011;696;48.546;9.896;2022-09-09T03:12:48;2.40;;;1.25;;
1402;SDS011;696;48.546;9.896;2022-09-09T03:15:13;2.17;;;1.13;;
1402;SDS011;696;48.546;9.896;2022-09-09T03:17:39;3.67;;;1.35;;
1402;SDS011;696;48.546;9.896;2022-09-09T03:20:05;0.82;;;0.82;;
1402;SDS011;696;48.546;9.896;2022-09-09T03:22:32;0.95;;;0.60;;
1402;SDS011;696;48.546;9.896;2022-09-09T03:24:58;3.17;;;0.98;;
1402;SDS011;696;48.546;9.896;2022-09-09T03:27:23;0.63;;;0.40;;
1402;SDS011;696;48.546;9.896;2022-09-09T03:29:48;0.40;;;0.40;;
1402;SDS011;696;48.546;9.896;2022-09-09T03:32:16;0.55;;;0.47;;
1402;SDS011;696;48.546;9.896;2022-09-09T03:34:42;2.85;;;1.10;;
1402;SDS011;696;48.546;9.896;2022-09-09T03:37:08;0.70;;;0.70;;
1402;SDS011;696;48.546;9.896;2022-09-09T03:39:34;0.85;;;0.85;;
1402;SDS011;696;48.546;9.896;2022-09-09T03:41:59;2.42;;;1.08;;
1402;SDS011;696;48.546;9.896;2022-09-09T03:44:24;0.52;;;0.43;;
1402;SDS011;696;48.546;9.896;2022-09-09T03:46:50;1.58;;;1.15;;
1402;SDS011;696;48.546;9.896;2022-09-09T03:49:15;2.45;;;1.00;;
1402;SDS011;696;48.546;9.896;2022-09-09T03:51:41;1.42;;;0.90;;
1402;SDS011;696;48.546;9.896;2022-09-09T03:54:07;4.72;;;0.90;;
1402;SDS011;696;48.546;9.896;2022-09-09T03:56:35;2.72;;;0.80;;
1402;SDS011;696;48.546;9.896;2022-09-09T03:59:00;2.70;;;1.10;;
1402;SDS011;696;48.546;9.896;2022-09-09T04:01:26;0.95;;;0.75;;
1402;SDS011;696;48.546;9.896;2022-09-09T04:03:51;1.55;;;0.77;;
1402;SDS011;696;48.546;9.896;2022-09-09T04:06:17;0.40;;;0.40;;
1402;SDS011;696;48.546;9.896;2022-09-09T04:08:44;2.67;;;0.85;;
1402;SDS011;696;48.546;9.896;2022-09-09T04:11:10;2.75;;;1.05;;
1402;SDS011;696;48.546;9.896;2022-09-09T04:13:35;2.70;;;0.90;;
1402;SDS011;696;48.546;9.896;2022-09-09T04:16:05;1.27;;;1.02;;
1402;SDS011;696;48.546;9.896;2022-09-09T04:18:31;3.85;;;1.00;;
1402;SDS011;696;48.546;9.896;2022-09-09T04:20:57;2.67;;;1.42;;
1402;SDS011;696;48.546;9.896;2022-09-09T04:23:23;2.05;;;1.00;;
1402;SDS011;696;48.546;9.896;2022-09-09T04:25:52;4.88;;;1.20;;
1402;SDS011;696;48.546;9.896;2022-09-09T04:28:19;1.00;;;0.90;;
1402;SDS011;696;48.546;9.896;2022-09-09T04:30:46;1.83;;;0.95;;
1402;SDS011;696;48.546;9.896;2022-09-09T04:33:12;2.30;;;0.93;;
1402;SDS011;696;48.546;9.896;2022-09-09T04:35:38;1.42;;;1.00;;
1402;SDS011;696;48.546;9.896;2022-09-09T04:38:04;2.08;;;1.15;;
1402;SDS011;696;48.546;9.896;2022-09-09T04:40:31;2.20;;;1.05;;
1402;SDS011;696;48.546;9.896;2022-09-09T04:42:58;3.90;;;1.30;;
1402;SDS011;696;48.546;9.896;2022-09-09T04:45:23;1.27;;;0.73;;
1402;SDS011;696;48.546;9.896;2022-09-09T04:47:49;0.70;;;0.60;;
1402;SDS011;696;48.546;9.896;2022-09-09T04:50:14;0.98;;;0.88;;
1402;SDS011;696;48.546;9.896;2022-09-09T04:52:40;0.70;;;0.70;;
1402;SDS011;696;48.546;9.896;2022-09-09T04:55:06;2.47;;;1.02;;
1402;SDS011;696;48.546;9.896;2022-09-09T04:57:32;0.55;;;0.55;;
1402;SDS011;696;48.546;9.896;2022-09-09T04:59:58;1.55;;;0.80;;
1402;SDS011;696;48.546;9.896;2022-09-09T05:02:25;3.38;;;1.63;;
1402;SDS011;696;48.546;9.896;2022-09-09T05:04:51;0.90;;;0.85;;
1402;SDS011;696;48.546;9.896;2022-09-09T05:07:16;1.27;;;0.70;;
1402;SDS011;696;48.546;9.896;2022-09-09T05:09:41;1.52;;;0.90;;
1402;SDS011;696;48.546;9.896;2022-09-09T05:12:07;1.23;;;0.82;;
1402;SDS011;696;48.546;9.896;2022-09-09T05:14:33;1.05;;;0.90;;
1402;SDS011;696;48.546;9.896;2022-09-09T05:16:59;2.95;;;1.42;;
1402;SDS011;696;48.546;9.896;2022-09-09T05:19:24;1.60;;;1.13;;
1402;SDS011;696;48.546;9.896;2022-09-09T05:21:49;2.28;;;0.70;;
1402;SDS011;696;48.546;9.896;2022-09-09T05:24:15;8.40;;;1.85;;
1402;SDS011;696;48.546;9.896;2022-09-09T05:26:40;1.35;;;1.25;;
1402;SDS011;696;48.546;9.896;2022-09-09T05:29:06;2.65;;;1.15;;
1402;SDS011;696;48.546;9.896;2022-09-09T05:31:31;0.90;;;0.90;;
1402;SDS011;696;48.546;9.896;2022-09-09T05:33:57;1.35;;;1.23;;
1402;SDS011;696;48.546;9.896;2022-09-09T05:36:23;2.20;;;1.45;;
1402;SDS011;696;48.546;9.896;2022-09-09T05:38:49;4.32;;;1.30;;
1402;SDS011;696;48.546;9.896;2022-09-09T05:41:16;4.50;;;2.42;;
1402;SDS011;696;48.546;9.896;2022-09-09T05:43:42;3.45;;;1.70;;
1402;SDS011;696;48.546;9.896;2022-09-09T05:46:15;4.70;;;1.80;;
1402;SDS011;696;48.546;9.896;2022-09-09T05:48:42;1.52;;;1.25;;
1402;SDS011;696;48.546;9.896;2022-09-09T05:51:14;8.73;;;1.88;;
1402;SDS011;696;48.546;9.896;2022-09-09T05:53:41;1.55;;;1.45;;
1402;SDS011;696;48.546;9.896;2022-09-09T05:56:11;8.07;;;1.90;;
1402;SDS011;696;48.546;9.896;2022-09-09T05:58:41;2.35;;;1.50;;
1402;SDS011;696;48.546;9.896;2022-09-09T06:03:44;1.08;;;0.95;;
1402;SDS011;696;48.546;9.896;2022-09-09T06:06:12;4.72;;;1.08;;
1402;SDS011;696;48.546;9.896;2022-09-09T06:08:39;1.83;;;0.93;;
1402;SDS011;696;48.546;9.896;2022-09-09T06:13:41;2.85;;;1.17;;
1402;SDS011;696;48.546;9.896;2022-09-09T06:16:08;1.63;;;1.48;;
1402;SDS011;696;48.546;9.896;2022-09-09T06:18:38;2.22;;;1.70;;
1402;SDS011;696;48.546;9.896;2022-09-09T06:21:05;2.50;;;1.23;;
1402;SDS011;696;48.546;9.896;2022-09-09T06:23:32;6.90;;;1.70;;
1402;SDS011;696;48.546;9.896;2022-09-09T06:26:07;1.98;;;1.40;;
1402;SDS011;696;48.546;9.896;2022-09-09T06:28:36;2.00;;;1.13;;
1402;SDS011;696;48.546;9.896;2022-09-09T06:31:03;6.95;;;2.35;;
1402;SDS011;696;48.546;9.896;2022-09-09T06:33:33;4.13;;;1.58;;
1402;SDS011;696;48.546;9.896;2022-09-09T06:36:00;4.18;;;1.70;;
1402;SDS011;696;48.546;9.896;2022-09-09T06:38:27;2.97;;;1.80;;
1402;SDS011;696;48.546;9.896;2022-09-09T06:40:56;4.95;;;1.30;;
1402;SDS011;696;48.546;9.896;2022-09-09T06:43:23;2.50;;;1.17;;
1402;SDS011;696;48.546;9.896;2022-09-09T06:45:56;1.38;;;1.13;;
1402;SDS011;696;48.546;9.896;2022-09-09T06:48:22;1.25;;;1.15;;
1402;SDS011;696;48.546;9.896;2022-09-09T06:50:47;2.35;;;1.00;;
1402;SDS011;696;48.546;9.896;2022-09-09T06:53:16;1.58;;;1.05;;
1402;SDS011;696;48.546;9.896;2022-09-09T06:55:44;0.85;;;0.82;;
1402;SDS011;696;48.546;9.896;2022-09-09T06:58:09;3.03;;;1.20;;
1402;SDS011;696;48.546;9.896;2022-09-09T07:00:35;1.70;;;1.13;;
1402;SDS011;696;48.546;9.896;2022-09-09T07:03:02;1.40;;;1.05;;
1402;SDS011;696;48.546;9.896;2022-09-09T07:05:28;0.70;;;0.70;;
1402;SDS011;696;48.546;9.896;2022-09-09T07:07:53;4.45;;;1.20;;
1402;SDS011;696;48.546;9.896;2022-09-09T07:10:18;1.27;;;0.98;;
1402;SDS011;696;48.546;9.896;2022-09-09T07:12:44;0.80;;;0.73;;
1402;SDS011;696;48.546;9.896;2022-09-09T07:15:09;2.15;;;1.10;;
1402;SDS011;696;48.546;9.896;2022-09-09T07:17:34;2.08;;;1.15;;
1402;SDS011;696;48.546;9.896;2022-09-09T07:20:00;6.60;;;2.22;;
1402;SDS011;696;48.546;9.896;2022-09-09T07:22:27;4.38;;;2.15;;
1402;SDS011;696;48.546;9.896;2022-09-09T07:24:52;4.45;;;1.60;;
1402;SDS011;696;48.546;9.896;2022-09-09T07:27:18;2.05;;;1.27;;
1402;SDS011;696;48.546;9.896;2022-09-09T07:29:43;2.28;;;1.02;;
1402;SDS011;696;48.546;9.896;2022-09-09T07:32:10;3.67;;;0.98;;
1402;SDS011;696;48.546;9.896;2022-09-09T07:34:36;2.50;;;0.75;;
1402;SDS011;696;48.546;9.896;2022-09-09T07:37:01;2.90;;;0.77;;
1402;SDS011;696;48.546;9.896;2022-09-09T07:39:27;4.18;;;0.50;;
1402;SDS011;696;48.546;9.896;2022-09-09T07:41:52;2.45;;;1.02;;
1402;SDS011;696;48.546;9.896;2022-09-09T07:44:23;1.67;;;0.73;;
1402;SDS011;696;48.546;9.896;2022-09-09T07:46:49;1.30;;;0.70;;
1402;SDS011;696;48.546;9.896;2022-09-09T07:49:15;6.10;;;1.23;;
1402;SDS011;696;48.546;9.896;2022-09-09T07:51:41;1.73;;;0.60;;
1402;SDS011;696;48.546;9.896;2022-09-09T07:54:09;1.52;;;0.70;;
1402;SDS011;696;48.546;9.896;2022-09-09T07:56:36;2.00;;;0.70;;
1402;SDS011;696;48.546;9.896;2022-09-09T07:59:02;0.77;;;0.68;;
1402;SDS011;696;48.546;9.896;2022-09-09T08:01:32;0.40;;;0.40;;
1402;SDS011;696;48.546;9.896;2022-09-09T08:04:03;3.22;;;0.80;;
1402;SDS011;696;48.546;9.896;2022-09-09T08:06:30;4.43;;;1.58;;
1402;SDS011;696;48.546;9.896;2022-09-09T08:09:06;0.40;;;0.28;;
1402;SDS011;696;48.546;9.896;2022-09-09T08:11:32;2.35;;;0.60;;
1402;SDS011;696;48.546;9.896;2022-09-09T08:13:58;2.70;;;0.57;;
1402;SDS011;696;48.546;9.896;2022-09-09T08:16:25;0.52;;;0.52;;
1402;SDS011;696;48.546;9.896;2022-09-09T08:18:52;1.48;;;0.75;;
1402;SDS011;696;48.546;9.896;2022-09-09T08:21:20;2.22;;;0.95;;
1402;SDS011;696;48.546;9.896;2022-09-09T08:23:49;0.65;;;0.65;;
1402;SDS011;696;48.546;9.896;2022-09-09T08:26:18;0.87;;;0.43;;
1402;SDS011;696;48.546;9.896;2022-09-09T08:28:49;0.60;;;0.50;;
1402;SDS011;696;48.546;9.896;2022-09-09T08:31:22;1.75;;;0.68;;
1402;SDS011;696;48.546;9.896;2022-09-09T08:33:48;4.38;;;1.05;;
1402;SDS011;696;48.546;9.896;2022-09-09T08:36:18;4.95;;;0.77;;
1402;SDS011;696;48.546;9.896;2022-09-09T08:38:47;4.97;;;0.90;;
1402;SDS011;696;48.546;9.896;2022-09-09T08:41:23;0.57;;;0.50;;
1402;SDS011;696;48.546;9.896;2022-09-09T08:53:05;0.52;;;0.52;;
1402;SDS011;696;48.546;9.896;2022-09-09T08:55:52;0.65;;;0.50;;
1402;SDS011;696;48.546;9.896;2022-09-09T09:00:50;0.32;;;0.32;;
1402;SDS011;696;48.546;9.896;2022-09-09T09:06:21;4.13;;;1.42;;
1402;SDS011;696;48.546;9.896;2022-09-09T09:09:02;4.07;;;1.33;;
1402;SDS011;696;48.546;9.896;2022-09-09T09:11:39;4.55;;;1.38;;
1402;SDS011;696;48.546;9.896;2022-09-09T09:16:50;4.30;;;1.67;;
1402;SDS011;696;48.546;9.896;2022-09-09T09:19:19;7.40;;;1.27;;
1402;SDS011;696;48.546;9.896;2022-09-09T09:21:49;4.05;;;1.52;;
1402;SDS011;696;48.546;9.896;2022-09-09T09:26:48;1.23;;;0.73;;
1402;SDS011;696;48.546;9.896;2022-09-09T09:29:15;5.45;;;0.60;;
1402;SDS011;696;48.546;9.896;2022-09-09T09:31:47;3.85;;;0.70;;
1402;SDS011;696;48.546;9.896;2022-09-09T09:34:16;0.47;;;0.43;;
1402;SDS011;696;48.546;9.896;2022-09-09T09:36:46;0.73;;;0.20;;
1402;SDS011;696;48.546;9.896;2022-09-09T09:39:28;4.07;;;0.95;;
1402;SDS011;696;48.546;9.896;2022-09-09T09:41:54;4.00;;;0.77;;
1402;SDS011;696;48.546;9.896;2022-09-09T09:46:52;1.88;;;0.57;;
1402;SDS011;696;48.546;9.896;2022-09-09T09:49:18;0.45;;;0.45;;
1402;SDS011;696;48.546;9.896;2022-09-09T09:51:43;1.75;;;0.52;;
1402;SDS011;696;48.546;9.896;2022-09-09T09:54:13;0.32;;;0.32;;
1402;SDS011;696;48.546;9.896;2022-09-09T09:56:41;0.63;;;0.40;;
1402;SDS011;696;48.546;9.896;2022-09-09T09:59:21;4.20;;;0.73;;
1402;SDS011;696;48.546;9.896;2022-09-09T10:01:46;1.55;;;0.32;;
1402;SDS011;696;48.546;9.896;2022-09-09T10:06:43;0.75;;;0.45;;
1402;SDS011;696;48.546;9.896;2022-09-09T10:09:22;0.82;;;0.52;;
1402;SDS011;696;48.546;9.896;2022-09-09T10:12:01;1.75;;;0.20;;
1402;SDS011;696;48.546;9.896;2022-09-09T10:23:19;2.85;;;0.28;;
1402;SDS011;696;48.546;9.896;2022-09-09T10:26:01;0.10;;;0.10;;
1402;SDS011;696;48.546;9.896;2022-09-09T10:36:23;2.13;;;0.30;;
1402;SDS011;696;48.546;9.896;2022-09-09T10:39:04;4.15;;;0.47;;
1402;SDS011;696;48.546;9.896;2022-09-09T10:47:17;2.00;;;0.65;;
1402;SDS011;696;48.546;9.896;2022-09-09T10:55:33;0.75;;;0.47;;
1402;SDS011;696;48.546;9.896;2022-09-09T10:58:03;0.55;;;0.40;;
1402;SDS011;696;48.546;9.896;2022-09-09T11:03:19;0.30;;;0.30;;
1402;SDS011;696;48.546;9.896;2022-09-09T11:05:58;0.38;;;0.35;;
1402;SDS011;696;48.546;9.896;2022-09-09T11:08:29;3.22;;;0.35;;
1402;SDS011;696;48.546;9.896;2022-09-09T11:11:06;4.00;;;0.88;;
1402;SDS011;696;48.546;9.896;2022-09-09T11:13:40;3.15;;;0.90;;
1402;SDS011;696;48.546;9.896;2022-09-09T11:19:17;0.50;;;0.30;;
1402;SDS011;696;48.546;9.896;2022-09-09T11:21:47;1.35;;;0.55;;
1402;SDS011;696;48.546;9.896;2022-09-09T11:24:26;0.65;;;0.57;;
1402;SDS011;696;48.546;9.896;2022-09-09T11:27:07;0.40;;;0.40;;
1402;SDS011;696;48.546;9.896;2022-09-09T11:40:34;1.40;;;0.20;;
1402;SDS011;696;48.546;9.896;2022-09-09T11:43:45;0.77;;;0.35;;
1402;SDS011;696;48.546;9.896;2022-09-09T11:45:53;0.38;;;0.30;;
1402;SDS011;696;48.546;9.896;2022-09-09T11:48:23;1.38;;;0.40;;
1402;SDS011;696;48.546;9.896;2022-09-09T11:50:59;1.50;;;0.47;;
1402;SDS011;696;48.546;9.896;2022-09-09T11:53:26;0.52;;;0.28;;
1402;SDS011;696;48.546;9.896;2022-09-09T11:56:05;1.35;;;0.47;;
1402;SDS011;696;48.546;9.896;2022-09-09T11:58:35;0.45;;;0.25;;
1402;SDS011;696;48.546;9.896;2022-09-09T12:01:12;1.15;;;0.55;;
1402;SDS011;696;48.546;9.896;2022-09-09T12:03:40;1.23;;;0.43;;
1402;SDS011;696;48.546;9.896;2022-09-09T12:08:53;0.60;;;0.20;;
1402;SDS011;696;48.546;9.896;2022-09-09T12:11:26;1.00;;;0.20;;
1402;SDS011;696;48.546;9.896;2022-09-09T12:13:53;4.68;;;0.28;;
1402;SDS011;696;48.546;9.896;2022-09-09T12:19:05;0.50;;;0.30;;
1402;SDS011;696;48.546;9.896;2022-09-09T12:32:24;0.38;;;0.20;;
1402;SDS011;696;48.546;9.896;2022-09-09T12:34:54;0.40;;;0.35;;
1402;SDS011;696;48.546;9.896;2022-09-09T12:37:34;0.20;;;0.13;;
1402;SDS011;696;48.546;9.896;2022-09-09T12:40:02;4.05;;;0.38;;
1402;SDS011;696;48.546;9.896;2022-09-09T12:42:30;1.85;;;0.20;;
1402;SDS011;696;48.546;9.896;2022-09-09T12:45:03;1.40;;;0.30;;
1402;SDS011;696;48.546;9.896;2022-09-09T12:47:46;0.10;;;0.10;;
1402;SDS011;696;48.546;9.896;2022-09-09T12:50:27;0.35;;;0.32;;
1402;SDS011;696;48.546;9.896;2022-09-09T12:53:02;0.85;;;0.32;;
1402;SDS011;696;48.546;9.896;2022-09-09T12:55:32;1.75;;;0.13;;
1402;SDS011;696;48.546;9.896;2022-09-09T12:58:03;0.80;;;0.10;;
1402;SDS011;696;48.546;9.896;2022-09-09T13:00:31;0.32;;;0.20;;
1402;SDS011;696;48.546;9.896;2022-09-09T13:02:57;0.68;;;0.10;;
1402;SDS011;696;48.546;9.896;2022-09-09T13:05:25;2.50;;;0.28;;
1402;SDS011;696;48.546;9.896;2022-09-09T13:07:59;0.40;;;0.40;;
1402;SDS011;696;48.546;9.896;2022-09-09T13:10:27;0.95;;;0.20;;
1402;SDS011;696;48.546;9.896;2022-09-09T13:12:54;5.78;;;0.47;;
1402;SDS011;696;48.546;9.896;2022-09-09T13:15:23;1.65;;;0.32;;
1402;SDS011;696;48.546;9.896;2022-09-09T13:17:58;0.20;;;0.20;;
1402;SDS011;696;48.546;9.896;2022-09-09T13:20:26;3.20;;;0.60;;
1402;SDS011;696;48.546;9.896;2022-09-09T13:22:52;2.35;;;0.50;;
1402;SDS011;696;48.546;9.896;2022-09-09T13:30:26;0.50;;;0.40;;
1402;SDS011;696;48.546;9.896;2022-09-09T13:35:36;0.85;;;0.38;;
1402;SDS011;696;48.546;9.896;2022-09-09T13:38:20;0.90;;;0.40;;
1402;SDS011;696;48.546;9.896;2022-09-09T13:41:00;0.55;;;0.22;;
1402;SDS011;696;48.546;9.896;2022-09-09T13:43:28;1.02;;;0.35;;
1402;SDS011;696;48.546;9.896;2022-09-09T13:46:00;2.38;;;0.60;;
1402;SDS011;696;48.546;9.896;2022-09-09T13:48:27;1.02;;;0.55;;
1402;SDS011;696;48.546;9.896;2022-09-09T13:51:00;0.35;;;0.32;;
1402;SDS011;696;48.546;9.896;2022-09-09T13:53:29;4.25;;;0.60;;
1402;SDS011;696;48.546;9.896;2022-09-09T13:55:55;0.35;;;0.20;;
1402;SDS011;696;48.546;9.896;2022-09-09T13:58:21;6.72;;;0.38;;
1402;SDS011;696;48.546;9.896;2022-09-09T14:00:49;3.22;;;0.85;;
1402;SDS011;696;48.546;9.896;2022-09-09T14:03:15;2.60;;;0.80;;
1402;SDS011;696;48.546;9.896;2022-09-09T14:05:40;0.77;;;0.30;;
1402;SDS011;696;48.546;9.896;2022-09-09T14:08:07;0.63;;;0.40;;
1402;SDS011;696;48.546;9.896;2022-09-09T14:10:40;0.98;;;0.38;;
1402;SDS011;696;48.546;9.896;2022-09-09T14:13:05;4.00;;;0.52;;
1402;SDS011;696;48.546;9.896;2022-09-09T14:15:30;0.47;;;0.20;;
1402;SDS011;696;48.546;9.896;2022-09-09T14:17:56;1.35;;;0.60;;
1402;SDS011;696;48.546;9.896;2022-09-09T14:20:21;0.85;;;0.40;;
1402;SDS011;696;48.546;9.896;2022-09-09T14:22:47;4.57;;;0.75;;
1402;SDS011;696;48.546;9.896;2022-09-09T14:25:12;0.63;;;0.10;;
1402;SDS011;696;48.546;9.896;2022-09-09T14:27:41;3.40;;;0.40;;
1402;SDS011;696;48.546;9.896;2022-09-09T14:30:07;1.85;;;0.32;;
1402;SDS011;696;48.546;9.896;2022-09-09T14:32:33;0.40;;;0.10;;
1402;SDS011;696;48.546;9.896;2022-09-09T14:34:59;0.10;;;0.10;;
1402;SDS011;696;48.546;9.896;2022-09-09T14:37:24;3.28;;;0.20;;
1402;SDS011;696;48.546;9.896;2022-09-09T14:39:50;2.50;;;0.40;;
1402;SDS011;696;48.546;9.896;2022-09-09T14:42:16;2.28;;;0.65;;
1402;SDS011;696;48.546;9.896;2022-09-09T14:44:41;1.88;;;0.20;;
1402;SDS011;696;48.546;9.896;2022-09-09T14:47:07;0.45;;;0.45;;
1402;SDS011;696;48.546;9.896;2022-09-09T14:49:36;2.08;;;0.55;;
1402;SDS011;696;48.546;9.896;2022-09-09T14:52:02;2.75;;;0.63;;
1402;SDS011;696;48.546;9.896;2022-09-09T14:54:28;0.90;;;0.30;;
1402;SDS011;696;48.546;9.896;2022-09-09T14:56:54;0.65;;;0.40;;
1402;SDS011;696;48.546;9.896;2022-09-09T14:59:19;0.70;;;0.40;;
1402;SDS011;696;48.546;9.896;2022-09-09T15:01:45;3.38;;;0.75;;
1402;SDS011;696;48.546;9.896;2022-09-09T15:04:10;0.30;;;0.10;;
1402;SDS011;696;48.546;9.896;2022-09-09T15:06:37;0.45;;;0.45;;
1402;SDS011;696;48.546;9.896;2022-09-09T15:09:04;0.85;;;0.40;;
1402;SDS011;696;48.546;9.896;2022-09-09T15:11:30;0.30;;;0.30;;
1402;SDS011;696;48.546;9.896;2022-09-09T15:13:59;1.20;;;0.43;;
1402;SDS011;696;48.546;9.896;2022-09-09T15:16:26;2.13;;;0.55;;
1402;SDS011;696;48.546;9.896;2022-09-09T15:18:53;4.90;;;0.75;;
1402;SDS011;696;48.546;9.896;2022-09-09T15:21:20;1.33;;;0.30;;
1402;SDS011;696;48.546;9.896;2022-09-09T15:23:47;0.52;;;0.40;;
1402;SDS011;696;48.546;9.896;2022-09-09T15:26:13;0.43;;;0.20;;
1402;SDS011;696;48.546;9.896;2022-09-09T15:28:39;3.03;;;0.50;;
1402;SDS011;696;48.546;9.896;2022-09-09T15:31:15;0.60;;;0.28;;
1402;SDS011;696;48.546;9.896;2022-09-09T15:33:54;0.63;;;0.45;;
1402;SDS011;696;48.546;9.896;2022-09-09T15:36:30;0.38;;;0.20;;
1402;SDS011;696;48.546;9.896;2022-09-09T15:39:03;1.98;;;1.00;;
1402;SDS011;696;48.546;9.896;2022-09-09T15:41:30;0.20;;;0.20;;
1402;SDS011;696;48.546;9.896;2022-09-09T15:43:59;1.02;;;0.45;;
1402;SDS011;696;48.546;9.896;2022-09-09T15:46:32;0.57;;;0.38;;
1402;SDS011;696;48.546;9.896;2022-09-09T15:49:05;0.40;;;0.40;;
1402;SDS011;696;48.546;9.896;2022-09-09T15:51:34;1.25;;;0.55;;
1402;SDS011;696;48.546;9.896;2022-09-09T15:53:59;0.30;;;0.28;;
1402;SDS011;696;48.546;9.896;2022-09-09T15:56:25;0.80;;;0.22;;
1402;SDS011;696;48.546;9.896;2022-09-09T15:58:59;1.17;;;0.52;;
1402;SDS011;696;48.546;9.896;2022-09-09T16:01:26;3.60;;;0.35;;
1402;SDS011;696;48.546;9.896;2022-09-09T16:03:52;5.93;;;0.68;;
1402;SDS011;696;48.546;9.896;2022-09-09T16:06:18;0.25;;;0.22;;
1402;SDS011;696;48.546;9.896;2022-09-09T16:08:46;0.68;;;0.52;;
1402;SDS011;696;48.546;9.896;2022-09-09T16:11:16;2.28;;;0.80;;
1402;SDS011;696;48.546;9.896;2022-09-09T16:13:45;0.47;;;0.30;;
1402;SDS011;696;48.546;9.896;2022-09-09T16:16:13;0.63;;;0.40;;
1402;SDS011;696;48.546;9.896;2022-09-09T16:18:40;0.50;;;0.50;;
1402;SDS011;696;48.546;9.896;2022-09-09T16:21:07;0.88;;;0.30;;
1402;SDS011;696;48.546;9.896;2022-09-09T16:23:36;6.47;;;0.60;;
1402;SDS011;696;48.546;9.896;2022-09-09T16:26:01;0.85;;;0.40;;
1402;SDS011;696;48.546;9.896;2022-09-09T16:28:27;0.70;;;0.50;;
1402;SDS011;696;48.546;9.896;2022-09-09T16:30:53;2.45;;;0.68;;
1402;SDS011;696;48.546;9.896;2022-09-09T16:33:18;1.85;;;0.10;;
1402;SDS011;696;48.546;9.896;2022-09-09T16:35:43;0.17;;;0.17;;
1402;SDS011;696;48.546;9.896;2022-09-09T16:38:09;1.13;;;0.32;;
1402;SDS011;696;48.546;9.896;2022-09-09T16:40:35;0.10;;;0.10;;
1402;SDS011;696;48.546;9.896;2022-09-09T16:43:01;0.30;;;0.30;;
1402;SDS011;696;48.546;9.896;2022-09-09T16:45:27;0.15;;;0.15;;
1402;SDS011;696;48.546;9.896;2022-09-09T16:47:53;2.15;;;0.50;;
1402;SDS011;696;48.546;9.896;2022-09-09T16:50:18;7.53;;;0.40;;
1402;SDS011;696;48.546;9.896;2022-09-09T16:52:44;1.27;;;0.40;;
1402;SDS011;696;48.546;9.896;2022-09-09T16:55:09;1.42;;;0.63;;
1402;SDS011;696;48.546;9.896;2022-09-09T16:57:34;0.35;;;0.32;;
1402;SDS011;696;48.546;9.896;2022-09-09T17:00:00;0.85;;;0.30;;
1402;SDS011;696;48.546;9.896;2022-09-09T17:02:29;1.45;;;0.30;;
1402;SDS011;696;48.546;9.896;2022-09-09T17:04:55;0.25;;;0.17;;
1402;SDS011;696;48.546;9.896;2022-09-09T17:07:20;0.40;;;0.30;;
1402;SDS011;696;48.546;9.896;2022-09-09T17:09:45;5.00;;;0.50;;
1402;SDS011;696;48.546;9.896;2022-09-09T17:12:11;0.50;;;0.40;;
1402;SDS011;696;48.546;9.896;2022-09-09T17:14:37;0.85;;;0.20;;
1402;SDS011;696;48.546;9.896;2022-09-09T17:17:03;3.38;;;0.47;;
1402;SDS011;696;48.546;9.896;2022-09-09T17:19:29;1.25;;;0.60;;
1402;SDS011;696;48.546;9.896;2022-09-09T17:21:55;1.17;;;0.52;;
1402;SDS011;696;48.546;9.896;2022-09-09T17:24:22;0.52;;;0.20;;
1402;SDS011;696;48.546;9.896;2022-09-09T17:26:47;0.38;;;0.32;;
1402;SDS011;696;48.546;9.896;2022-09-09T17:29:13;0.52;;;0.20;;
1402;SDS011;696;48.546;9.896;2022-09-09T17:31:38;0.40;;;0.30;;
1402;SDS011;696;48.546;9.896;2022-09-09T17:34:05;0.10;;;0.10;;
1402;SDS011;696;48.546;9.896;2022-09-09T17:36:32;0.45;;;0.22;;
1402;SDS011;696;48.546;9.896;2022-09-09T17:38:59;0.32;;;0.32;;
1402;SDS011;696;48.546;9.896;2022-09-09T17:41:26;2.47;;;0.65;;
1402;SDS011;696;48.546;9.896;2022-09-09T17:43:53;4.43;;;1.05;;
1402;SDS011;696;48.546;9.896;2022-09-09T17:46:20;0.10;;;0.10;;
1402;SDS011;696;48.546;9.896;2022-09-09T17:48:47;0.43;;;0.22;;
1402;SDS011;696;48.546;9.896;2022-09-09T17:51:15;2.40;;;0.40;;
1402;SDS011;696;48.546;9.896;2022-09-09T17:53:44;0.32;;;0.30;;
1402;SDS011;696;48.546;9.896;2022-09-09T17:56:12;3.05;;;0.30;;
1402;SDS011;696;48.546;9.896;2022-09-09T17:58:39;0.10;;;0.10;;
1402;SDS011;696;48.546;9.896;2022-09-09T18:01:06;0.20;;;0.20;;
1402;SDS011;696;48.546;9.896;2022-09-09T18:03:37;0.22;;;0.20;;
1402;SDS011;696;48.546;9.896;2022-09-09T18:06:03;0.32;;;0.30;;